• Join FlightAware (Why Join?)
  • Login
  • US Flag 
08:56PM EDT


 

Airport Tracker/Info


-or-


 

Live Flight TrackerFlight Track Log ✈ DAL6234 ✈ 10-Apr-2013 ✈ KLGA - KSYR

Flight Track Log - Related Links

Times and Time Zones

All times are in EDT time to prevent confusion due to time zone crossing. See the DAL6234 flight status page for this flight to view local times or setup timezone preferences in your user account.

Time Position Orientation Groundspeed Altitude Reporting Facility
EDT Latitude Longitude Course Direction KTS MPH feet Rate Location/Type
04:17PM 40.7500 -73.8500 114° Southeast 145 167 1,400  Level New York TRACON
04:18PM 40.7333 -73.8000 114° Southeast 226 260 3,100 1,740 Climbing New York TRACON
04:19PM 40.7833 -73.7833 14° North 252 290 4,900 2,400 Climbing New York TRACON
04:20PM 40.8667 -73.8000 351° North 284 327 8,000 2,940 Climbing New York TRACON
04:21PM 40.9333 -73.8167 349° North 283 326 10,800 2,520 Climbing New York TRACON
04:22PM 40.9833 -73.9000 308° West 273 314 13,100 1,620 Climbing New York TRACON
04:24PM 41.0636 -74.1339 295° West 332 382 16,100 900 Climbing New York Center
04:25PM 41.1003 -74.2350 296° West 339 390 16,100  Level New York Center
04:26PM 41.1506 -74.3669 297° West 354 407 16,100  Level New York Center
04:27PM 41.1889 -74.4767 295° West 365 420 16,100 120 Level New York Center
04:28PM 41.2453 -74.6039 301° West 370 426 16,400 840 Climbing New York Center
04:29PM 41.3044 -74.7039 308° West 375 432 17,800 1,380 Climbing New York Center
04:30PM 41.3675 -74.8097 308° West 375 432 19,200 1,380 Climbing New York Center
04:31PM 41.4386 -74.9192 311° West 381 438 20,700 1,380 Climbing New York Center
04:32PM 41.5075 -75.0289 310° West 386 444 22,000 660 Climbing New York Center
04:33PM 41.5806 -75.1442 310° West 386 444 22,000  Level New York Center
04:34PM 41.6567 -75.2769 308° West 398 458 22,000  Level New York Center
04:35PM 41.7292 -75.3958 309° West 404 465 22,000  Level New York Center
04:36PM 41.7972 -75.5147 308° West 409 471 22,000  Level New York Center
04:37PM 41.8675 -75.6339 308° West 409 471 22,000 -60 Level New York Center
04:38PM 41.9375 -75.7533 308° West 414 476 21,900 -540 Descending New York Center
04:39PM 42.0014 -75.8669 307° West 400 460 21,000 -1,500 Descending New York Center
04:40PM 42.0614 -75.9692 308° West 382 440 18,900 -2,400 Descending New York Center
04:41PM 42.1156 -76.0658 307° West 345 397 16,200 -2,580 Descending New York Center
04:42PM 42.1811 -76.1325 323° Northwest 323 372 13,800 -1,920 Descending New York Center
04:44PM 42.3408 -76.1200 North 347 399 11,100 -1,080 Descending Boston Center
04:45PM 42.4369 -76.1117 North 345 397 11,000 -60 Descending Boston Center
04:46PM 42.5228 -76.0969 North 346 398 11,000  Level Boston Center
04:47PM 42.6189 -76.0942 North 335 386 11,000 -360 Level Boston Center
04:48PM 42.6931 -76.1183 347° North 268 308 10,300 -1,140 Descending Boston Center
04:49PM 42.7633 -76.1425 346° North 249 287 8,700 -1,680 Descending Boston Center
04:50PM 42.8372 -76.1722 344° North 271 312 7,000 -1,620 Descending Boston Center
04:51PM 42.9000 -76.2300 326° Northwest 279 321 5,500 -1,140 Descending Boston Center
04:52PM 42.9686 -76.3025 322° Northwest 248 285 4,700 -900 Descending Boston Center
04:53PM 43.0097 -76.3761 307° West 249 287 3,600 -1,020 Descending Boston Center
04:54PM 43.0733 -76.4056 341° North 237 273 2,700 -660 Descending Boston Center
04:55PM 43.1000 -76.3561 54° Northeast 178 205 2,400 -360 Descending Boston Center